sensor_id;sensor_type;location;lat;lon;timestamp;P1;durP1;ratioP1;P2;durP2;ratioP2
45476;SDS011;31958;51.756;-2.556;2023-07-31T00:01:23;1.70;;;0.75;;
45476;SDS011;31958;51.756;-2.556;2023-07-31T00:03:49;1.15;;;0.43;;
45476;SDS011;31958;51.756;-2.556;2023-07-31T00:06:14;1.00;;;0.55;;
45476;SDS011;31958;51.756;-2.556;2023-07-31T00:08:39;1.30;;;0.50;;
45476;SDS011;31958;51.756;-2.556;2023-07-31T00:11:05;2.63;;;0.50;;
45476;SDS011;31958;51.756;-2.556;2023-07-31T00:13:30;1.35;;;0.60;;
45476;SDS011;31958;51.756;-2.556;2023-07-31T00:15:55;5.00;;;0.68;;
45476;SDS011;31958;51.756;-2.556;2023-07-31T00:18:21;0.80;;;0.50;;
45476;SDS011;31958;51.756;-2.556;2023-07-31T00:20:46;5.13;;;0.60;;
45476;SDS011;31958;51.756;-2.556;2023-07-31T00:23:11;1.30;;;0.63;;
45476;SDS011;31958;51.756;-2.556;2023-07-31T00:25:37;0.68;;;0.40;;
45476;SDS011;31958;51.756;-2.556;2023-07-31T00:28:02;0.63;;;0.35;;
45476;SDS011;31958;51.756;-2.556;2023-07-31T00:30:27;0.63;;;0.30;;
45476;SDS011;31958;51.756;-2.556;2023-07-31T00:32:53;0.52;;;0.40;;
45476;SDS011;31958;51.756;-2.556;2023-07-31T00:35:18;2.05;;;0.68;;
45476;SDS011;31958;51.756;-2.556;2023-07-31T00:37:43;0.73;;;0.40;;
45476;SDS011;31958;51.756;-2.556;2023-07-31T00:40:09;0.93;;;0.38;;
45476;SDS011;31958;51.756;-2.556;2023-07-31T00:42:34;0.70;;;0.32;;
45476;SDS011;31958;51.756;-2.556;2023-07-31T00:45:00;0.30;;;0.30;;
45476;SDS011;31958;51.756;-2.556;2023-07-31T00:47:25;2.38;;;0.50;;
45476;SDS011;31958;51.756;-2.556;2023-07-31T00:49:51;4.22;;;0.30;;
45476;SDS011;31958;51.756;-2.556;2023-07-31T00:52:16;0.57;;;0.35;;
45476;SDS011;31958;51.756;-2.556;2023-07-31T00:54:42;0.68;;;0.40;;
45476;SDS011;31958;51.756;-2.556;2023-07-31T00:57:07;0.32;;;0.30;;
45476;SDS011;31958;51.756;-2.556;2023-07-31T00:59:33;0.55;;;0.30;;
45476;SDS011;31958;51.756;-2.556;2023-07-31T01:01:59;0.38;;;0.30;;
45476;SDS011;31958;51.756;-2.556;2023-07-31T01:04:24;1.08;;;0.40;;
45476;SDS011;31958;51.756;-2.556;2023-07-31T01:07:00;0.25;;;0.20;;
45476;SDS011;31958;51.756;-2.556;2023-07-31T01:09:44;4.03;;;0.32;;
45476;SDS011;31958;51.756;-2.556;2023-07-31T01:12:15;2.90;;;0.40;;
45476;SDS011;31958;51.756;-2.556;2023-07-31T01:14:50;0.45;;;0.30;;
45476;SDS011;31958;51.756;-2.556;2023-07-31T01:17:36;0.43;;;0.30;;
45476;SDS011;31958;51.756;-2.556;2023-07-31T01:20:03;0.75;;;0.40;;
45476;SDS011;31958;51.756;-2.556;2023-07-31T01:28:19;0.45;;;0.30;;
45476;SDS011;31958;51.756;-2.556;2023-07-31T01:30:47;0.40;;;0.20;;
45476;SDS011;31958;51.756;-2.556;2023-07-31T01:33:14;0.20;;;0.20;;
45476;SDS011;31958;51.756;-2.556;2023-07-31T01:35:43;0.45;;;0.32;;
45476;SDS011;31958;51.756;-2.556;2023-07-31T01:38:09;0.60;;;0.30;;
45476;SDS011;31958;51.756;-2.556;2023-07-31T01:40:34;0.40;;;0.25;;
45476;SDS011;31958;51.756;-2.556;2023-07-31T01:42:59;1.02;;;0.22;;
45476;SDS011;31958;51.756;-2.556;2023-07-31T01:45:25;1.75;;;0.30;;
45476;SDS011;31958;51.756;-2.556;2023-07-31T01:47:50;1.27;;;0.40;;
45476;SDS011;31958;51.756;-2.556;2023-07-31T01:50:16;0.70;;;0.30;;
45476;SDS011;31958;51.756;-2.556;2023-07-31T01:52:41;1.02;;;0.47;;
45476;SDS011;31958;51.756;-2.556;2023-07-31T01:55:06;1.20;;;0.50;;
45476;SDS011;31958;51.756;-2.556;2023-07-31T01:57:32;0.65;;;0.40;;
45476;SDS011;31958;51.756;-2.556;2023-07-31T01:59:57;1.10;;;0.50;;
45476;SDS011;31958;51.756;-2.556;2023-07-31T02:02:22;2.90;;;0.40;;
45476;SDS011;31958;51.756;-2.556;2023-07-31T02:04:48;3.65;;;0.70;;
45476;SDS011;31958;51.756;-2.556;2023-07-31T02:07:13;3.83;;;0.50;;
45476;SDS011;31958;51.756;-2.556;2023-07-31T02:09:39;2.40;;;0.70;;
45476;SDS011;31958;51.756;-2.556;2023-07-31T02:12:04;2.78;;;0.85;;
45476;SDS011;31958;51.756;-2.556;2023-07-31T02:14:30;5.72;;;1.45;;
45476;SDS011;31958;51.756;-2.556;2023-07-31T02:16:55;5.40;;;1.25;;
45476;SDS011;31958;51.756;-2.556;2023-07-31T02:19:20;3.55;;;1.30;;
45476;SDS011;31958;51.756;-2.556;2023-07-31T02:21:46;3.38;;;1.10;;
45476;SDS011;31958;51.756;-2.556;2023-07-31T02:24:11;6.28;;;1.58;;
45476;SDS011;31958;51.756;-2.556;2023-07-31T02:26:36;2.70;;;1.00;;
45476;SDS011;31958;51.756;-2.556;2023-07-31T02:29:02;4.70;;;1.20;;
45476;SDS011;31958;51.756;-2.556;2023-07-31T02:31:27;2.92;;;1.10;;
45476;SDS011;31958;51.756;-2.556;2023-07-31T02:33:52;2.28;;;1.00;;
45476;SDS011;31958;51.756;-2.556;2023-07-31T02:36:18;3.45;;;1.17;;
45476;SDS011;31958;51.756;-2.556;2023-07-31T02:38:44;3.67;;;1.20;;
45476;SDS011;31958;51.756;-2.556;2023-07-31T02:41:09;5.18;;;0.98;;
45476;SDS011;31958;51.756;-2.556;2023-07-31T02:43:34;1.77;;;0.80;;
45476;SDS011;31958;51.756;-2.556;2023-07-31T02:46:00;2.55;;;0.88;;
45476;SDS011;31958;51.756;-2.556;2023-07-31T02:48:25;2.10;;;0.80;;
45476;SDS011;31958;51.756;-2.556;2023-07-31T02:50:50;5.03;;;1.10;;
45476;SDS011;31958;51.756;-2.556;2023-07-31T02:53:16;7.95;;;1.20;;
45476;SDS011;31958;51.756;-2.556;2023-07-31T02:55:41;4.97;;;1.10;;
45476;SDS011;31958;51.756;-2.556;2023-07-31T02:58:06;3.42;;;1.38;;
45476;SDS011;31958;51.756;-2.556;2023-07-31T03:00:32;6.82;;;1.60;;
45476;SDS011;31958;51.756;-2.556;2023-07-31T03:02:57;5.95;;;1.60;;
45476;SDS011;31958;51.756;-2.556;2023-07-31T03:05:22;6.53;;;1.55;;
45476;SDS011;31958;51.756;-2.556;2023-07-31T03:07:48;8.70;;;1.80;;
45476;SDS011;31958;51.756;-2.556;2023-07-31T03:10:13;5.03;;;1.52;;
45476;SDS011;31958;51.756;-2.556;2023-07-31T03:12:39;5.63;;;1.95;;
45476;SDS011;31958;51.756;-2.556;2023-07-31T03:15:05;9.45;;;4.03;;
45476;SDS011;31958;51.756;-2.556;2023-07-31T03:17:31;10.68;;;4.53;;
45476;SDS011;31958;51.756;-2.556;2023-07-31T03:19:56;11.43;;;4.70;;
45476;SDS011;31958;51.756;-2.556;2023-07-31T03:22:21;11.55;;;5.00;;
45476;SDS011;31958;51.756;-2.556;2023-07-31T03:24:47;14.50;;;6.22;;
45476;SDS011;31958;51.756;-2.556;2023-07-31T03:27:12;16.67;;;5.72;;
45476;SDS011;31958;51.756;-2.556;2023-07-31T03:29:37;12.80;;;5.85;;
45476;SDS011;31958;51.756;-2.556;2023-07-31T03:32:03;13.82;;;6.28;;
45476;SDS011;31958;51.756;-2.556;2023-07-31T03:34:29;12.75;;;5.50;;
45476;SDS011;31958;51.756;-2.556;2023-07-31T03:36:54;9.18;;;4.65;;
45476;SDS011;31958;51.756;-2.556;2023-07-31T03:39:20;11.60;;;4.18;;
45476;SDS011;31958;51.756;-2.556;2023-07-31T03:41:45;9.60;;;3.85;;
45476;SDS011;31958;51.756;-2.556;2023-07-31T03:44:10;8.75;;;3.92;;
45476;SDS011;31958;51.756;-2.556;2023-07-31T03:46:36;11.77;;;4.05;;
45476;SDS011;31958;51.756;-2.556;2023-07-31T03:49:01;9.88;;;4.50;;
45476;SDS011;31958;51.756;-2.556;2023-07-31T03:51:26;9.75;;;4.05;;
45476;SDS011;31958;51.756;-2.556;2023-07-31T03:53:52;10.82;;;4.53;;
45476;SDS011;31958;51.756;-2.556;2023-07-31T03:56:17;9.50;;;3.92;;
45476;SDS011;31958;51.756;-2.556;2023-07-31T03:58:42;11.85;;;4.25;;
45476;SDS011;31958;51.756;-2.556;2023-07-31T04:01:08;8.13;;;4.57;;
45476;SDS011;31958;51.756;-2.556;2023-07-31T04:03:33;7.07;;;3.65;;
45476;SDS011;31958;51.756;-2.556;2023-07-31T04:05:59;11.07;;;3.67;;
45476;SDS011;31958;51.756;-2.556;2023-07-31T04:08:24;8.25;;;3.40;;
45476;SDS011;31958;51.756;-2.556;2023-07-31T04:10:49;9.75;;;4.03;;
45476;SDS011;31958;51.756;-2.556;2023-07-31T04:13:15;7.97;;;3.53;;
45476;SDS011;31958;51.756;-2.556;2023-07-31T04:15:40;5.68;;;2.97;;
45476;SDS011;31958;51.756;-2.556;2023-07-31T04:18:06;6.80;;;2.85;;
45476;SDS011;31958;51.756;-2.556;2023-07-31T04:20:31;6.15;;;3.17;;
45476;SDS011;31958;51.756;-2.556;2023-07-31T04:22:57;6.13;;;3.00;;
45476;SDS011;31958;51.756;-2.556;2023-07-31T04:25:22;8.77;;;3.42;;
45476;SDS011;31958;51.756;-2.556;2023-07-31T04:27:47;6.75;;;2.63;;
45476;SDS011;31958;51.756;-2.556;2023-07-31T04:30:13;8.30;;;3.28;;
45476;SDS011;31958;51.756;-2.556;2023-07-31T04:32:38;8.43;;;3.78;;
45476;SDS011;31958;51.756;-2.556;2023-07-31T04:35:03;4.88;;;3.17;;
45476;SDS011;31958;51.756;-2.556;2023-07-31T04:37:29;8.00;;;3.08;;
45476;SDS011;31958;51.756;-2.556;2023-07-31T04:39:54;6.28;;;2.95;;
45476;SDS011;31958;51.756;-2.556;2023-07-31T04:42:20;8.95;;;3.20;;
45476;SDS011;31958;51.756;-2.556;2023-07-31T04:44:45;6.80;;;3.53;;
45476;SDS011;31958;51.756;-2.556;2023-07-31T04:47:10;7.20;;;3.03;;
45476;SDS011;31958;51.756;-2.556;2023-07-31T04:49:36;11.68;;;3.55;;
45476;SDS011;31958;51.756;-2.556;2023-07-31T04:52:01;7.78;;;3.50;;
45476;SDS011;31958;51.756;-2.556;2023-07-31T04:54:27;6.85;;;3.28;;
45476;SDS011;31958;51.756;-2.556;2023-07-31T04:56:52;10.60;;;3.78;;
45476;SDS011;31958;51.756;-2.556;2023-07-31T04:59:17;9.38;;;4.43;;
45476;SDS011;31958;51.756;-2.556;2023-07-31T05:01:43;11.35;;;3.75;;
45476;SDS011;31958;51.756;-2.556;2023-07-31T05:04:10;12.07;;;4.20;;
45476;SDS011;31958;51.756;-2.556;2023-07-31T05:06:37;11.18;;;4.57;;
45476;SDS011;31958;51.756;-2.556;2023-07-31T05:09:02;11.70;;;4.55;;
45476;SDS011;31958;51.756;-2.556;2023-07-31T05:11:28;13.10;;;4.85;;
45476;SDS011;31958;51.756;-2.556;2023-07-31T05:13:53;9.38;;;5.00;;
45476;SDS011;31958;51.756;-2.556;2023-07-31T05:16:18;14.73;;;5.60;;
45476;SDS011;31958;51.756;-2.556;2023-07-31T05:18:44;16.70;;;5.25;;
45476;SDS011;31958;51.756;-2.556;2023-07-31T05:21:09;16.30;;;6.18;;
45476;SDS011;31958;51.756;-2.556;2023-07-31T05:23:34;14.68;;;7.65;;
45476;SDS011;31958;51.756;-2.556;2023-07-31T05:26:06;13.85;;;6.70;;
45476;SDS011;31958;51.756;-2.556;2023-07-31T05:28:33;9.32;;;4.63;;
45476;SDS011;31958;51.756;-2.556;2023-07-31T05:30:59;10.55;;;4.40;;
45476;SDS011;31958;51.756;-2.556;2023-07-31T05:33:26;15.75;;;6.90;;
45476;SDS011;31958;51.756;-2.556;2023-07-31T05:35:51;17.33;;;7.35;;
45476;SDS011;31958;51.756;-2.556;2023-07-31T05:38:16;14.27;;;7.18;;
45476;SDS011;31958;51.756;-2.556;2023-07-31T05:40:42;20.63;;;7.30;;
45476;SDS011;31958;51.756;-2.556;2023-07-31T05:43:07;13.07;;;6.40;;
45476;SDS011;31958;51.756;-2.556;2023-07-31T05:45:33;12.90;;;5.97;;
45476;SDS011;31958;51.756;-2.556;2023-07-31T05:47:58;18.15;;;6.38;;
45476;SDS011;31958;51.756;-2.556;2023-07-31T05:50:23;14.93;;;6.18;;
45476;SDS011;31958;51.756;-2.556;2023-07-31T05:52:49;15.30;;;6.22;;
45476;SDS011;31958;51.756;-2.556;2023-07-31T05:55:14;14.15;;;5.55;;
45476;SDS011;31958;51.756;-2.556;2023-07-31T05:57:41;11.18;;;5.50;;
45476;SDS011;31958;51.756;-2.556;2023-07-31T06:00:07;14.82;;;5.57;;
45476;SDS011;31958;51.756;-2.556;2023-07-31T06:02:32;19.42;;;5.65;;
45476;SDS011;31958;51.756;-2.556;2023-07-31T06:05:01;11.10;;;5.82;;
45476;SDS011;31958;51.756;-2.556;2023-07-31T06:07:26;12.75;;;6.10;;
45476;SDS011;31958;51.756;-2.556;2023-07-31T06:09:52;15.48;;;5.22;;
45476;SDS011;31958;51.756;-2.556;2023-07-31T06:12:19;15.07;;;5.53;;
45476;SDS011;31958;51.756;-2.556;2023-07-31T06:14:45;10.43;;;4.63;;
45476;SDS011;31958;51.756;-2.556;2023-07-31T06:17:10;12.98;;;4.90;;
45476;SDS011;31958;51.756;-2.556;2023-07-31T06:19:35;11.07;;;5.30;;
45476;SDS011;31958;51.756;-2.556;2023-07-31T06:22:01;11.07;;;4.63;;
45476;SDS011;31958;51.756;-2.556;2023-07-31T06:24:27;10.00;;;4.38;;
45476;SDS011;31958;51.756;-2.556;2023-07-31T06:26:53;13.15;;;4.13;;
45476;SDS011;31958;51.756;-2.556;2023-07-31T06:29:18;9.93;;;4.25;;
45476;SDS011;31958;51.756;-2.556;2023-07-31T06:31:43;9.68;;;3.88;;
45476;SDS011;31958;51.756;-2.556;2023-07-31T06:34:09;9.15;;;3.70;;
45476;SDS011;31958;51.756;-2.556;2023-07-31T06:36:34;11.20;;;4.15;;
45476;SDS011;31958;51.756;-2.556;2023-07-31T06:39:00;13.35;;;4.45;;
45476;SDS011;31958;51.756;-2.556;2023-07-31T06:41:25;7.50;;;3.38;;
45476;SDS011;31958;51.756;-2.556;2023-07-31T06:43:50;9.40;;;3.15;;
45476;SDS011;31958;51.756;-2.556;2023-07-31T06:46:16;8.18;;;3.67;;
45476;SDS011;31958;51.756;-2.556;2023-07-31T06:48:41;6.75;;;3.15;;
45476;SDS011;31958;51.756;-2.556;2023-07-31T06:51:06;8.13;;;3.05;;
45476;SDS011;31958;51.756;-2.556;2023-07-31T06:53:32;8.43;;;3.25;;
45476;SDS011;31958;51.756;-2.556;2023-07-31T06:55:57;9.95;;;3.10;;
45476;SDS011;31958;51.756;-2.556;2023-07-31T06:58:23;11.38;;;3.05;;
45476;SDS011;31958;51.756;-2.556;2023-07-31T07:00:48;7.40;;;3.10;;
45476;SDS011;31958;51.756;-2.556;2023-07-31T07:03:18;10.13;;;3.40;;
45476;SDS011;31958;51.756;-2.556;2023-07-31T07:05:43;9.35;;;3.40;;
45476;SDS011;31958;51.756;-2.556;2023-07-31T07:08:09;9.13;;;3.15;;
45476;SDS011;31958;51.756;-2.556;2023-07-31T07:10:34;8.18;;;3.42;;
45476;SDS011;31958;51.756;-2.556;2023-07-31T07:12:59;7.18;;;3.35;;
45476;SDS011;31958;51.756;-2.556;2023-07-31T07:15:25;9.73;;;3.75;;
45476;SDS011;31958;51.756;-2.556;2023-07-31T07:17:50;9.38;;;3.42;;
45476;SDS011;31958;51.756;-2.556;2023-07-31T07:20:15;10.30;;;3.08;;
45476;SDS011;31958;51.756;-2.556;2023-07-31T07:22:41;10.95;;;3.55;;
45476;SDS011;31958;51.756;-2.556;2023-07-31T07:25:08;11.25;;;3.30;;
45476;SDS011;31958;51.756;-2.556;2023-07-31T07:27:34;9.52;;;2.80;;
45476;SDS011;31958;51.756;-2.556;2023-07-31T07:29:59;8.40;;;2.88;;
45476;SDS011;31958;51.756;-2.556;2023-07-31T07:32:24;8.45;;;3.40;;
45476;SDS011;31958;51.756;-2.556;2023-07-31T07:34:50;12.73;;;3.50;;
45476;SDS011;31958;51.756;-2.556;2023-07-31T07:37:15;6.68;;;2.63;;
45476;SDS011;31958;51.756;-2.556;2023-07-31T07:39:41;7.07;;;2.90;;
45476;SDS011;31958;51.756;-2.556;2023-07-31T07:42:06;6.50;;;2.45;;
45476;SDS011;31958;51.756;-2.556;2023-07-31T07:44:32;8.63;;;2.53;;
45476;SDS011;31958;51.756;-2.556;2023-07-31T07:46:57;11.40;;;2.90;;
45476;SDS011;31958;51.756;-2.556;2023-07-31T07:49:22;8.02;;;2.58;;
45476;SDS011;31958;51.756;-2.556;2023-07-31T07:51:48;9.13;;;2.30;;
45476;SDS011;31958;51.756;-2.556;2023-07-31T07:54:13;6.47;;;2.72;;
45476;SDS011;31958;51.756;-2.556;2023-07-31T07:56:39;9.90;;;2.70;;
45476;SDS011;31958;51.756;-2.556;2023-07-31T07:59:04;9.27;;;3.17;;
45476;SDS011;31958;51.756;-2.556;2023-07-31T08:01:30;8.38;;;2.50;;
45476;SDS011;31958;51.756;-2.556;2023-07-31T08:03:55;7.47;;;2.88;;
45476;SDS011;31958;51.756;-2.556;2023-07-31T08:06:20;6.93;;;2.38;;
45476;SDS011;31958;51.756;-2.556;2023-07-31T08:08:47;10.27;;;2.10;;
45476;SDS011;31958;51.756;-2.556;2023-07-31T08:11:12;7.72;;;2.70;;
45476;SDS011;31958;51.756;-2.556;2023-07-31T08:13:38;8.30;;;2.30;;
45476;SDS011;31958;51.756;-2.556;2023-07-31T08:16:04;10.57;;;2.38;;
45476;SDS011;31958;51.756;-2.556;2023-07-31T08:18:30;7.70;;;2.58;;
45476;SDS011;31958;51.756;-2.556;2023-07-31T08:20:56;8.68;;;2.25;;
45476;SDS011;31958;51.756;-2.556;2023-07-31T08:23:21;6.05;;;2.50;;
45476;SDS011;31958;51.756;-2.556;2023-07-31T08:25:46;8.40;;;2.20;;
45476;SDS011;31958;51.756;-2.556;2023-07-31T08:28:12;9.18;;;2.13;;
45476;SDS011;31958;51.756;-2.556;2023-07-31T08:30:37;6.28;;;2.13;;
45476;SDS011;31958;51.756;-2.556;2023-07-31T08:33:02;7.25;;;2.30;;
45476;SDS011;31958;51.756;-2.556;2023-07-31T08:35:28;6.88;;;2.20;;
45476;SDS011;31958;51.756;-2.556;2023-07-31T08:37:53;8.57;;;2.17;;
45476;SDS011;31958;51.756;-2.556;2023-07-31T08:40:19;9.40;;;2.50;;
45476;SDS011;31958;51.756;-2.556;2023-07-31T08:42:47;8.30;;;2.33;;
45476;SDS011;31958;51.756;-2.556;2023-07-31T08:45:14;10.80;;;3.05;;
45476;SDS011;31958;51.756;-2.556;2023-07-31T08:47:42;7.10;;;2.90;;
45476;SDS011;31958;51.756;-2.556;2023-07-31T08:50:10;7.97;;;2.60;;
45476;SDS011;31958;51.756;-2.556;2023-07-31T08:52:37;7.18;;;2.95;;
45476;SDS011;31958;51.756;-2.556;2023-07-31T08:55:02;10.32;;;2.67;;
45476;SDS011;31958;51.756;-2.556;2023-07-31T08:57:28;10.25;;;2.70;;
45476;SDS011;31958;51.756;-2.556;2023-07-31T08:59:53;7.22;;;3.05;;
45476;SDS011;31958;51.756;-2.556;2023-07-31T09:02:19;7.30;;;2.85;;
45476;SDS011;31958;51.756;-2.556;2023-07-31T09:04:45;9.82;;;3.05;;
45476;SDS011;31958;51.756;-2.556;2023-07-31T09:07:10;9.25;;;2.95;;
45476;SDS011;31958;51.756;-2.556;2023-07-31T09:09:38;15.70;;;3.70;;
45476;SDS011;31958;51.756;-2.556;2023-07-31T09:12:03;9.25;;;3.22;;
45476;SDS011;31958;51.756;-2.556;2023-07-31T09:14:29;15.20;;;4.15;;
45476;SDS011;31958;51.756;-2.556;2023-07-31T09:16:55;9.30;;;3.92;;
45476;SDS011;31958;51.756;-2.556;2023-07-31T09:19:25;10.57;;;4.38;;
45476;SDS011;31958;51.756;-2.556;2023-07-31T09:21:52;9.05;;;3.78;;
45476;SDS011;31958;51.756;-2.556;2023-07-31T09:24:38;10.30;;;4.00;;
45476;SDS011;31958;51.756;-2.556;2023-07-31T09:27:03;10.55;;;4.43;;
45476;SDS011;31958;51.756;-2.556;2023-07-31T09:29:28;13.90;;;4.53;;
45476;SDS011;31958;51.756;-2.556;2023-07-31T09:31:54;11.02;;;4.10;;
45476;SDS011;31958;51.756;-2.556;2023-07-31T09:34:20;11.40;;;4.35;;
45476;SDS011;31958;51.756;-2.556;2023-07-31T09:39:19;11.70;;;4.05;;
45476;SDS011;31958;51.756;-2.556;2023-07-31T09:41:48;13.57;;;4.75;;
45476;SDS011;31958;51.756;-2.556;2023-07-31T09:44:19;11.57;;;5.45;;
45476;SDS011;31958;51.756;-2.556;2023-07-31T09:46:45;10.45;;;4.78;;
45476;SDS011;31958;51.756;-2.556;2023-07-31T09:49:11;10.15;;;4.50;;
45476;SDS011;31958;51.756;-2.556;2023-07-31T09:51:37;13.73;;;4.97;;
45476;SDS011;31958;51.756;-2.556;2023-07-31T09:56:36;16.27;;;5.70;;
45476;SDS011;31958;51.756;-2.556;2023-07-31T09:59:02;14.65;;;5.85;;
45476;SDS011;31958;51.756;-2.556;2023-07-31T10:01:29;12.82;;;5.03;;
45476;SDS011;31958;51.756;-2.556;2023-07-31T10:03:55;12.98;;;4.55;;
45476;SDS011;31958;51.756;-2.556;2023-07-31T10:06:21;13.98;;;5.63;;
45476;SDS011;31958;51.756;-2.556;2023-07-31T10:08:47;18.75;;;5.18;;
45476;SDS011;31958;51.756;-2.556;2023-07-31T10:11:14;14.43;;;5.05;;
45476;SDS011;31958;51.756;-2.556;2023-07-31T10:13:41;12.75;;;5.18;;
45476;SDS011;31958;51.756;-2.556;2023-07-31T10:16:06;10.15;;;4.53;;
45476;SDS011;31958;51.756;-2.556;2023-07-31T10:18:32;10.85;;;4.80;;
45476;SDS011;31958;51.756;-2.556;2023-07-31T10:20:58;17.65;;;4.88;;
45476;SDS011;31958;51.756;-2.556;2023-07-31T10:23:24;11.20;;;4.15;;
45476;SDS011;31958;51.756;-2.556;2023-07-31T10:25:52;14.60;;;4.57;;
45476;SDS011;31958;51.756;-2.556;2023-07-31T10:28:18;13.55;;;4.47;;
45476;SDS011;31958;51.756;-2.556;2023-07-31T10:30:43;18.35;;;5.00;;
45476;SDS011;31958;51.756;-2.556;2023-07-31T10:33:09;11.80;;;4.93;;
45476;SDS011;31958;51.756;-2.556;2023-07-31T10:35:35;10.77;;;4.45;;
45476;SDS011;31958;51.756;-2.556;2023-07-31T10:38:10;10.73;;;3.90;;
45476;SDS011;31958;51.756;-2.556;2023-07-31T10:40:39;9.15;;;3.95;;
45476;SDS011;31958;51.756;-2.556;2023-07-31T10:43:04;16.38;;;4.63;;
45476;SDS011;31958;51.756;-2.556;2023-07-31T10:45:31;13.77;;;3.95;;
45476;SDS011;31958;51.756;-2.556;2023-07-31T10:47:59;14.43;;;5.10;;
45476;SDS011;31958;51.756;-2.556;2023-07-31T10:50:27;17.65;;;4.20;;
45476;SDS011;31958;51.756;-2.556;2023-07-31T10:52:54;10.02;;;3.63;;
45476;SDS011;31958;51.756;-2.556;2023-07-31T10:55:28;11.63;;;3.95;;
45476;SDS011;31958;51.756;-2.556;2023-07-31T10:57:54;14.97;;;4.13;;
45476;SDS011;31958;51.756;-2.556;2023-07-31T11:00:26;13.07;;;4.50;;
45476;SDS011;31958;51.756;-2.556;2023-07-31T11:05:49;20.52;;;4.55;;
45476;SDS011;31958;51.756;-2.556;2023-07-31T11:13:48;11.35;;;3.30;;
45476;SDS011;31958;51.756;-2.556;2023-07-31T11:16:17;11.68;;;3.42;;
45476;SDS011;31958;51.756;-2.556;2023-07-31T11:18:44;12.45;;;3.85;;
45476;SDS011;31958;51.756;-2.556;2023-07-31T11:21:18;14.15;;;3.53;;
45476;SDS011;31958;51.756;-2.556;2023-07-31T11:23:48;15.82;;;3.83;;
45476;SDS011;31958;51.756;-2.556;2023-07-31T11:26:14;13.10;;;3.60;;
45476;SDS011;31958;51.756;-2.556;2023-07-31T11:28:39;13.63;;;4.18;;
45476;SDS011;31958;51.756;-2.556;2023-07-31T11:31:08;15.27;;;3.85;;
45476;SDS011;31958;51.756;-2.556;2023-07-31T11:33:34;13.27;;;4.30;;
45476;SDS011;31958;51.756;-2.556;2023-07-31T11:36:00;9.65;;;3.40;;
45476;SDS011;31958;51.756;-2.556;2023-07-31T11:38:29;12.65;;;3.85;;
45476;SDS011;31958;51.756;-2.556;2023-07-31T11:40:56;19.58;;;4.30;;
45476;SDS011;31958;51.756;-2.556;2023-07-31T11:43:24;16.27;;;4.10;;
45476;SDS011;31958;51.756;-2.556;2023-07-31T11:45:50;14.25;;;3.92;;
45476;SDS011;31958;51.756;-2.556;2023-07-31T11:48:23;15.80;;;3.83;;
45476;SDS011;31958;51.756;-2.556;2023-07-31T11:50:50;15.95;;;4.07;;
45476;SDS011;31958;51.756;-2.556;2023-07-31T11:53:17;10.27;;;3.38;;
45476;SDS011;31958;51.756;-2.556;2023-07-31T11:55:46;15.73;;;4.22;;
45476;SDS011;31958;51.756;-2.556;2023-07-31T11:58:13;13.05;;;3.70;;
45476;SDS011;31958;51.756;-2.556;2023-07-31T12:00:39;14.60;;;4.35;;
45476;SDS011;31958;51.756;-2.556;2023-07-31T12:03:04;16.50;;;4.47;;
45476;SDS011;31958;51.756;-2.556;2023-07-31T12:05:30;18.50;;;4.00;;
45476;SDS011;31958;51.756;-2.556;2023-07-31T12:07:55;11.68;;;3.60;;
45476;SDS011;31958;51.756;-2.556;2023-07-31T12:10:28;13.95;;;3.70;;
45476;SDS011;31958;51.756;-2.556;2023-07-31T12:13:05;17.00;;;3.97;;
45476;SDS011;31958;51.756;-2.556;2023-07-31T12:15:37;17.83;;;4.22;;
45476;SDS011;31958;51.756;-2.556;2023-07-31T12:18:04;17.35;;;4.03;;
45476;SDS011;31958;51.756;-2.556;2023-07-31T12:20:30;15.48;;;3.65;;
45476;SDS011;31958;51.756;-2.556;2023-07-31T12:22:57;15.85;;;4.03;;
45476;SDS011;31958;51.756;-2.556;2023-07-31T12:25:23;19.48;;;4.35;;
45476;SDS011;31958;51.756;-2.556;2023-07-31T12:27:53;14.57;;;3.50;;
45476;SDS011;31958;51.756;-2.556;2023-07-31T12:32:54;15.25;;;3.70;;
45476;SDS011;31958;51.756;-2.556;2023-07-31T12:35:19;13.40;;;3.30;;
45476;SDS011;31958;51.756;-2.556;2023-07-31T12:37:45;13.48;;;3.35;;
45476;SDS011;31958;51.756;-2.556;2023-07-31T12:40:10;7.43;;;3.20;;
45476;SDS011;31958;51.756;-2.556;2023-07-31T12:42:36;17.48;;;4.22;;
45476;SDS011;31958;51.756;-2.556;2023-07-31T12:45:01;16.02;;;3.90;;
45476;SDS011;31958;51.756;-2.556;2023-07-31T12:47:27;11.90;;;3.83;;
45476;SDS011;31958;51.756;-2.556;2023-07-31T12:49:52;13.20;;;3.67;;
45476;SDS011;31958;51.756;-2.556;2023-07-31T12:52:17;19.10;;;4.20;;
45476;SDS011;31958;51.756;-2.556;2023-07-31T12:54:43;19.65;;;4.38;;
45476;SDS011;31958;51.756;-2.556;2023-07-31T12:57:08;16.67;;;4.50;;
45476;SDS011;31958;51.756;-2.556;2023-07-31T12:59:34;12.48;;;3.80;;
45476;SDS011;31958;51.756;-2.556;2023-07-31T13:01:59;18.88;;;3.95;;
45476;SDS011;31958;51.756;-2.556;2023-07-31T13:04:24;15.38;;;4.05;;
45476;SDS011;31958;51.756;-2.556;2023-07-31T13:06:49;19.20;;;4.07;;
45476;SDS011;31958;51.756;-2.556;2023-07-31T13:09:15;17.42;;;4.38;;
45476;SDS011;31958;51.756;-2.556;2023-07-31T13:11:42;14.90;;;3.97;;
45476;SDS011;31958;51.756;-2.556;2023-07-31T13:14:08;23.88;;;4.28;;
45476;SDS011;31958;51.756;-2.556;2023-07-31T13:16:33;14.10;;;4.15;;
45476;SDS011;31958;51.756;-2.556;2023-07-31T13:18:58;14.82;;;3.88;;
45476;SDS011;31958;51.756;-2.556;2023-07-31T13:21:24;14.80;;;3.85;;
45476;SDS011;31958;51.756;-2.556;2023-07-31T13:23:49;15.50;;;3.95;;
45476;SDS011;31958;51.756;-2.556;2023-07-31T13:26:14;21.95;;;5.15;;
45476;SDS011;31958;51.756;-2.556;2023-07-31T13:28:40;18.52;;;4.28;;
45476;SDS011;31958;51.756;-2.556;2023-07-31T13:31:05;12.50;;;3.70;;
45476;SDS011;31958;51.756;-2.556;2023-07-31T13:33:30;15.68;;;4.32;;
45476;SDS011;31958;51.756;-2.556;2023-07-31T13:35:56;20.08;;;4.07;;
45476;SDS011;31958;51.756;-2.556;2023-07-31T13:38:22;18.05;;;3.72;;
45476;SDS011;31958;51.756;-2.556;2023-07-31T13:40:47;15.98;;;3.35;;
45476;SDS011;31958;51.756;-2.556;2023-07-31T13:43:13;14.02;;;3.45;;
45476;SDS011;31958;51.756;-2.556;2023-07-31T13:45:38;14.02;;;4.05;;
45476;SDS011;31958;51.756;-2.556;2023-07-31T13:48:03;14.70;;;4.30;;
45476;SDS011;31958;51.756;-2.556;2023-07-31T13:50:29;17.63;;;3.78;;
45476;SDS011;31958;51.756;-2.556;2023-07-31T13:52:55;15.02;;;4.45;;
45476;SDS011;31958;51.756;-2.556;2023-07-31T13:55:21;10.88;;;3.33;;
45476;SDS011;31958;51.756;-2.556;2023-07-31T13:57:46;13.80;;;3.90;;
45476;SDS011;31958;51.756;-2.556;2023-07-31T14:00:12;15.23;;;3.95;;
45476;SDS011;31958;51.756;-2.556;2023-07-31T14:02:38;13.30;;;4.35;;
45476;SDS011;31958;51.756;-2.556;2023-07-31T14:05:03;20.52;;;4.60;;
45476;SDS011;31958;51.756;-2.556;2023-07-31T14:07:29;18.67;;;4.65;;
45476;SDS011;31958;51.756;-2.556;2023-07-31T14:09:54;16.90;;;4.38;;
45476;SDS011;31958;51.756;-2.556;2023-07-31T14:12:20;11.73;;;3.78;;
45476;SDS011;31958;51.756;-2.556;2023-07-31T14:14:45;13.57;;;4.43;;
45476;SDS011;31958;51.756;-2.556;2023-07-31T14:17:10;14.77;;;3.83;;
45476;SDS011;31958;51.756;-2.556;2023-07-31T14:19:36;15.98;;;4.75;;
45476;SDS011;31958;51.756;-2.556;2023-07-31T14:22:01;14.48;;;4.25;;
45476;SDS011;31958;51.756;-2.556;2023-07-31T14:24:27;14.48;;;5.43;;
45476;SDS011;31958;51.756;-2.556;2023-07-31T14:26:53;16.80;;;4.30;;
45476;SDS011;31958;51.756;-2.556;2023-07-31T14:29:19;14.60;;;4.28;;
45476;SDS011;31958;51.756;-2.556;2023-07-31T14:31:44;11.52;;;4.30;;
45476;SDS011;31958;51.756;-2.556;2023-07-31T14:34:10;16.60;;;5.18;;
45476;SDS011;31958;51.756;-2.556;2023-07-31T14:36:35;14.63;;;3.88;;
45476;SDS011;31958;51.756;-2.556;2023-07-31T14:39:00;10.27;;;4.07;;
45476;SDS011;31958;51.756;-2.556;2023-07-31T14:41:26;12.30;;;3.85;;
45476;SDS011;31958;51.756;-2.556;2023-07-31T14:43:52;13.38;;;3.85;;